createdAt,value
2022-10-13T00:00:50.566Z,13.40
2022-10-13T00:03:18.576Z,14.50
2022-10-13T00:05:49.042Z,18.38
2022-10-13T00:08:19.495Z,13.02
2022-10-13T00:10:48.997Z,13.57
2022-10-13T00:13:17.109Z,11.75
2022-10-13T00:15:45.730Z,13.38
2022-10-13T00:18:13.241Z,15.77
2022-10-13T00:20:50.392Z,16.50
2022-10-13T00:23:18.494Z,12.07
2022-10-13T00:25:50.419Z,22.83
2022-10-13T00:28:19.439Z,13.98
2022-10-13T00:30:47.404Z,14.57
2022-10-13T00:33:14.951Z,13.85
2022-10-13T00:35:43.431Z,18.67
2022-10-13T00:38:11.466Z,13.07
2022-10-13T00:40:55.897Z,13.07
2022-10-13T00:43:24.291Z,12.20
2022-10-13T00:45:53.881Z,12.35
2022-10-13T00:48:29.424Z,16.83
2022-10-13T00:50:58.405Z,11.10
2022-10-13T00:53:31.135Z,15.07
2022-10-13T00:55:58.407Z,16.17
2022-10-13T00:58:31.666Z,16.63
2022-10-13T01:00:59.548Z,15.77
2022-10-13T01:03:27.355Z,13.50
2022-10-13T01:05:59.693Z,13.40
2022-10-13T01:08:28.090Z,14.25
2022-10-13T01:11:13.087Z,15.80
2022-10-13T01:13:53.049Z,11.73
2022-10-13T01:16:33.272Z,15.10
2022-10-13T01:19:00.571Z,14.85
2022-10-13T01:21:55.555Z,14.82
2022-10-13T01:24:46.942Z,15.60
2022-10-13T01:27:31.057Z,14.63
2022-10-13T01:30:08.757Z,12.75
2022-10-13T01:32:59.593Z,12.38
2022-10-13T01:35:33.650Z,12.52
2022-10-13T01:38:00.653Z,12.32
2022-10-13T01:40:55.854Z,17.05
2022-10-13T01:43:31.589Z,17.67
2022-10-13T01:46:07.951Z,13.15
2022-10-13T01:48:38.267Z,13.88
2022-10-13T01:51:07.600Z,12.73
2022-10-13T01:53:34.797Z,18.50
2022-10-13T01:56:02.144Z,16.48
2022-10-13T01:58:32.427Z,18.83
2022-10-13T02:01:24.189Z,13.50
2022-10-13T02:04:09.765Z,17.40
2022-10-13T02:06:58.075Z,20.02
2022-10-13T02:09:39.721Z,13.23
2022-10-13T02:12:12.335Z,12.85
2022-10-13T02:14:42.329Z,14.07
2022-10-13T02:17:10.329Z,15.35
2022-10-13T02:19:39.014Z,15.25
2022-10-13T02:22:08.424Z,13.38
2022-10-13T02:24:36.076Z,14.80
2022-10-13T02:27:06.097Z,15.13
2022-10-13T02:29:33.102Z,14.77
2022-10-13T02:32:00.400Z,17.83
2022-10-13T02:34:27.367Z,12.68
2022-10-13T02:36:54.192Z,15.70
2022-10-13T02:39:21.335Z,19.80
2022-10-13T02:41:48.657Z,17.33
2022-10-13T02:44:15.867Z,18.75
2022-10-13T02:46:43.382Z,17.35
2022-10-13T02:49:10.613Z,20.08
2022-10-13T02:51:40.109Z,15.85
2022-10-13T02:54:07.689Z,19.73
2022-10-13T02:56:34.715Z,13.93
2022-10-13T02:59:01.572Z,15.52
2022-10-13T03:01:28.424Z,17.55
2022-10-13T03:03:55.354Z,12.68
2022-10-13T03:06:22.663Z,16.13
2022-10-13T03:08:49.619Z,17.42
2022-10-13T03:11:16.440Z,14.48
2022-10-13T03:13:43.551Z,16.50
2022-10-13T03:16:10.684Z,16.20
2022-10-13T03:18:37.669Z,17.95
2022-10-13T03:21:06.742Z,17.98
2022-10-13T03:23:33.780Z,15.05
2022-10-13T03:26:01.140Z,18.20
2022-10-13T03:28:28.725Z,12.10
2022-10-13T03:31:07.121Z,14.27
2022-10-13T03:33:34.059Z,14.63
2022-10-13T03:36:03.147Z,16.38
2022-10-13T03:38:32.016Z,15.23
2022-10-13T03:41:04.213Z,17.95
2022-10-13T03:43:31.101Z,23.95
2022-10-13T03:46:00.276Z,20.63
2022-10-13T03:48:28.785Z,11.95
2022-10-13T03:50:56.141Z,19.70
2022-10-13T03:53:23.459Z,20.83
2022-10-13T03:55:55.798Z,15.45
2022-10-13T03:58:24.600Z,19.83
2022-10-13T04:00:52.227Z,13.57
2022-10-13T04:03:19.692Z,18.35
2022-10-13T04:05:47.123Z,17.52
2022-10-13T04:08:14.634Z,20.20
2022-10-13T04:10:42.026Z,14.13
2022-10-13T04:13:09.655Z,20.05
2022-10-13T04:15:40.804Z,17.30
2022-10-13T04:18:08.647Z,18.45
2022-10-13T04:20:41.842Z,16.67
2022-10-13T04:23:09.185Z,18.80
2022-10-13T04:25:38.046Z,19.23
2022-10-13T04:28:06.389Z,20.50
2022-10-13T04:30:35.028Z,19.45
2022-10-13T04:33:02.294Z,22.92
2022-10-13T04:35:29.648Z,15.18
2022-10-13T04:37:59.455Z,18.13
2022-10-13T04:40:27.468Z,18.50
2022-10-13T04:42:54.389Z,19.88
2022-10-13T04:45:21.489Z,16.48
2022-10-13T04:47:48.282Z,22.52
2022-10-13T04:50:15.155Z,17.15
2022-10-13T04:52:41.988Z,19.40
2022-10-13T04:55:09.137Z,22.40
2022-10-13T04:57:36.208Z,23.17
2022-10-13T05:00:03.996Z,20.92
2022-10-13T05:02:30.929Z,22.33
2022-10-13T05:04:57.764Z,21.75
2022-10-13T05:07:24.725Z,20.83
2022-10-13T05:09:52.050Z,20.70
2022-10-13T05:12:19.543Z,22.58
2022-10-13T05:14:46.809Z,24.38
2022-10-13T05:17:13.991Z,23.40
2022-10-13T05:19:41.487Z,23.45
2022-10-13T05:22:08.395Z,24.88
2022-10-13T05:24:38.753Z,23.30
2022-10-13T05:27:14.770Z,17.90
2022-10-13T05:29:42.094Z,25.45
2022-10-13T05:32:09.155Z,24.52
2022-10-13T05:34:36.191Z,27.33
2022-10-13T05:37:03.137Z,24.85
2022-10-13T05:39:30.173Z,22.73
2022-10-13T05:41:57.042Z,29.08
2022-10-13T05:44:24.879Z,33.40
2022-10-13T05:46:52.751Z,25.60
2022-10-13T05:49:19.825Z,29.27
2022-10-13T05:51:50.751Z,22.60
2022-10-13T05:54:31.118Z,27.20
2022-10-13T05:57:02.992Z,25.77
2022-10-13T05:59:33.498Z,27.65
2022-10-13T06:02:02.469Z,27.23
2022-10-13T06:04:37.986Z,27.65
2022-10-13T06:07:05.747Z,26.83
2022-10-13T06:09:35.864Z,28.10
2022-10-13T06:12:02.861Z,37.38
2022-10-13T06:14:30.164Z,32.55
2022-10-13T06:16:56.975Z,27.83
2022-10-13T06:19:23.816Z,31.65
2022-10-13T06:21:50.906Z,34.45
2022-10-13T06:24:18.003Z,38.30
2022-10-13T06:26:45.011Z,29.02
2022-10-13T06:29:12.055Z,39.80
2022-10-13T06:31:38.944Z,29.75
2022-10-13T06:34:05.887Z,38.78
2022-10-13T06:36:32.714Z,31.00
2022-10-13T06:38:59.657Z,41.63
2022-10-13T06:41:26.589Z,32.28
2022-10-13T06:43:53.447Z,31.35
2022-10-13T06:46:20.616Z,28.98
2022-10-13T06:48:51.047Z,26.50
2022-10-13T06:51:18.505Z,25.98
2022-10-13T06:53:45.688Z,32.50
2022-10-13T06:56:14.346Z,32.00
2022-10-13T06:58:41.397Z,33.00
2022-10-13T07:01:12.103Z,26.33
2022-10-13T07:03:38.948Z,30.08
2022-10-13T07:06:06.652Z,29.25
2022-10-13T07:08:34.525Z,34.60
2022-10-13T07:11:12.936Z,30.02
2022-10-13T07:13:46.293Z,29.48
2022-10-13T07:16:14.782Z,29.80
2022-10-13T07:18:41.968Z,32.63
2022-10-13T07:21:09.406Z,29.05
2022-10-13T07:23:36.313Z,28.27
2022-10-13T07:26:07.959Z,36.97
2022-10-13T07:28:35.110Z,28.45
2022-10-13T07:31:07.829Z,29.08
2022-10-13T07:33:34.949Z,32.30
2022-10-13T07:36:02.094Z,32.50
2022-10-13T07:38:28.898Z,38.95
2022-10-13T07:40:56.070Z,33.22
2022-10-13T07:43:23.063Z,30.95
2022-10-13T07:45:49.916Z,28.83
2022-10-13T07:48:16.852Z,30.70
2022-10-13T07:50:43.780Z,30.42
2022-10-13T07:53:10.914Z,31.15
2022-10-13T07:55:37.910Z,28.02
2022-10-13T07:58:04.930Z,34.13
2022-10-13T08:00:31.948Z,37.13
2022-10-13T08:02:58.809Z,32.00
2022-10-13T08:05:25.647Z,31.00
2022-10-13T08:07:54.772Z,32.05
2022-10-13T08:10:26.058Z,31.88
2022-10-13T08:12:53.008Z,27.58
2022-10-13T08:15:19.966Z,33.08
2022-10-13T08:17:46.857Z,30.58
2022-10-13T08:20:13.933Z,30.00
2022-10-13T08:22:40.718Z,33.03
2022-10-13T08:25:07.835Z,31.67
2022-10-13T08:27:50.256Z,25.42
2022-10-13T08:30:19.352Z,29.15
2022-10-13T08:32:46.550Z,23.55
2022-10-13T08:35:13.518Z,29.75
2022-10-13T08:37:40.496Z,21.92
2022-10-13T08:40:11.593Z,23.55
2022-10-13T08:42:38.724Z,27.63
2022-10-13T08:45:40.473Z,29.00
2022-10-13T08:48:01.986Z,21.77
2022-10-13T08:50:33.929Z,19.70
2022-10-13T08:53:14.972Z,21.35
2022-10-13T08:55:44.651Z,26.15
2022-10-13T08:58:27.020Z,24.80
2022-10-13T09:01:09.095Z,23.95
2022-10-13T09:03:54.577Z,21.70
2022-10-13T09:06:31.832Z,19.05
2022-10-13T09:09:01.531Z,21.60
2022-10-13T09:11:36.203Z,28.77
2022-10-13T09:14:13.066Z,26.15
2022-10-13T09:16:43.375Z,30.55
2022-10-13T09:19:23.869Z,24.25
2022-10-13T09:22:14.044Z,33.38
2022-10-13T09:24:41.081Z,21.10
2022-10-13T09:27:15.192Z,22.90
2022-10-13T09:29:44.292Z,27.38
2022-10-13T09:32:20.656Z,23.45
2022-10-13T09:34:48.944Z,27.17
2022-10-13T09:37:24.478Z,30.85
2022-10-13T09:40:14.234Z,29.50
2022-10-13T09:42:41.213Z,28.23
2022-10-13T09:45:22.193Z,26.73
2022-10-13T09:47:53.310Z,30.40
2022-10-13T09:50:32.839Z,26.73
2022-10-13T09:53:24.110Z,25.30
2022-10-13T09:56:07.182Z,26.17
2022-10-13T09:58:36.756Z,26.65
2022-10-13T10:01:05.084Z,27.10
2022-10-13T10:03:38.661Z,29.65
2022-10-13T10:06:14.586Z,33.00
2022-10-13T10:09:09.674Z,27.73
2022-10-13T10:11:43.592Z,30.45
2022-10-13T10:14:15.514Z,35.35
2022-10-13T10:16:55.197Z,27.02
2022-10-13T10:19:32.096Z,33.65
2022-10-13T10:22:10.635Z,32.15
2022-10-13T10:24:49.423Z,37.03
2022-10-13T10:27:38.931Z,33.38
2022-10-13T10:30:21.157Z,33.20
2022-10-13T10:33:12.753Z,36.55
2022-10-13T10:36:03.090Z,36.35
2022-10-13T10:38:38.903Z,39.08
2022-10-13T10:41:31.477Z,34.58
2022-10-13T10:44:14.949Z,40.47
2022-10-13T10:47:17.552Z,43.22
2022-10-13T10:49:49.045Z,31.13
2022-10-13T10:52:27.184Z,32.85
2022-10-13T10:55:09.441Z,33.90
2022-10-13T10:57:53.717Z,31.95
2022-10-13T11:00:24.813Z,33.55
2022-10-13T11:03:33.220Z,39.35
2022-10-13T11:06:21.942Z,31.65
2022-10-13T11:08:50.272Z,34.83
2022-10-13T11:11:24.874Z,32.80
2022-10-13T11:13:55.735Z,31.25
2022-10-13T11:16:31.522Z,31.52
2022-10-13T11:19:25.076Z,33.25
2022-10-13T11:21:58.129Z,37.05
2022-10-13T11:24:52.760Z,31.98
2022-10-13T11:27:34.260Z,31.38
2022-10-13T11:30:02.360Z,29.77
2022-10-13T11:32:32.896Z,28.70
2022-10-13T11:35:04.834Z,39.17
2022-10-13T11:38:06.093Z,28.52
2022-10-13T11:41:21.825Z,26.55
2022-10-13T11:44:20.978Z,24.80
2022-10-13T11:46:54.214Z,26.33
2022-10-13T11:49:39.486Z,26.05
2022-10-13T11:52:12.480Z,27.02
2022-10-13T11:54:54.923Z,24.85
2022-10-13T11:57:26.702Z,34.80
2022-10-13T11:59:56.868Z,25.10
2022-10-13T12:02:26.493Z,22.95
2022-10-13T12:05:08.803Z,26.48
2022-10-13T12:07:41.612Z,26.40
2022-10-13T12:10:23.655Z,25.27
2022-10-13T12:12:51.285Z,22.63
2022-10-13T12:15:44.551Z,28.30
2022-10-13T12:18:34.069Z,27.33
2022-10-13T12:21:20.038Z,25.92
2022-10-13T12:23:48.831Z,23.27
2022-10-13T12:26:18.067Z,28.60
2022-10-13T12:28:57.177Z,25.73
2022-10-13T12:31:25.648Z,26.10
2022-10-13T12:33:55.392Z,23.25
2022-10-13T12:36:30.123Z,25.55
2022-10-13T12:39:05.610Z,26.00
2022-10-13T12:41:35.308Z,26.40
2022-10-13T12:44:06.705Z,26.25
2022-10-13T12:46:40.377Z,25.40
2022-10-13T12:49:12.691Z,22.48
2022-10-13T12:51:40.106Z,26.48
2022-10-13T12:54:09.629Z,23.60
2022-10-13T12:56:36.594Z,26.85
2022-10-13T12:59:04.187Z,19.25
2022-10-13T13:01:35.257Z,25.27
2022-10-13T13:04:35.691Z,28.23
2022-10-13T13:07:05.468Z,22.95
2022-10-13T13:09:34.350Z,27.88
2022-10-13T13:12:28.275Z,23.75
2022-10-13T13:14:56.477Z,22.95
2022-10-13T13:17:57.754Z,25.88
2022-10-13T13:20:33.203Z,22.75
2022-10-13T13:23:00.779Z,21.27
2022-10-13T13:25:27.956Z,15.15
2022-10-13T13:27:54.869Z,21.85
2022-10-13T13:30:23.685Z,20.17
2022-10-13T13:32:51.414Z,15.38
2022-10-13T13:35:18.652Z,14.27
2022-10-13T13:37:49.855Z,17.08
2022-10-13T13:40:23.472Z,17.48
2022-10-13T13:42:50.600Z,22.10
2022-10-13T13:45:20.822Z,24.60
2022-10-13T13:47:48.451Z,16.35
2022-10-13T13:50:18.061Z,28.80
2022-10-13T13:52:45.094Z,18.80
2022-10-13T13:55:12.094Z,19.85
2022-10-13T13:57:39.063Z,14.70
2022-10-13T14:00:06.951Z,13.48
2022-10-13T14:02:33.938Z,15.68
2022-10-13T14:05:00.838Z,13.45
2022-10-13T14:07:27.661Z,12.02
2022-10-13T14:09:57.856Z,14.77
2022-10-13T14:12:30.714Z,9.00
2022-10-13T14:14:58.704Z,13.23
2022-10-13T14:17:30.123Z,10.57
2022-10-13T14:19:57.185Z,10.90
2022-10-13T14:22:24.210Z,8.77
2022-10-13T14:24:51.244Z,7.20
2022-10-13T14:27:18.054Z,10.98
2022-10-13T14:29:45.232Z,11.25
2022-10-13T14:32:12.681Z,9.65
2022-10-13T14:34:39.691Z,7.32
2022-10-13T14:37:06.595Z,15.02
2022-10-13T14:39:33.915Z,13.10
2022-10-13T14:42:00.997Z,10.27
2022-10-13T14:44:28.233Z,16.10
2022-10-13T14:46:55.673Z,13.27
2022-10-13T14:49:22.935Z,11.50
2022-10-13T14:51:49.759Z,10.38
2022-10-13T14:54:16.848Z,12.90
2022-10-13T14:56:44.867Z,10.50
2022-10-13T14:59:12.535Z,10.63
2022-10-13T15:01:43.530Z,10.45
2022-10-13T15:04:10.737Z,6.82
2022-10-13T15:06:41.771Z,7.10
2022-10-13T15:11:37.035Z,8.10
2022-10-13T15:14:04.601Z,7.63
2022-10-13T15:16:37.063Z,4.82
2022-10-13T15:19:04.367Z,7.82
2022-10-13T15:21:31.274Z,9.30
2022-10-13T15:23:58.456Z,11.48
2022-10-13T15:26:25.422Z,8.10
2022-10-13T15:28:53.303Z,11.73
2022-10-13T15:31:22.102Z,8.90
2022-10-13T15:33:51.886Z,8.57
2022-10-13T15:36:20.168Z,14.40
2022-10-13T15:38:47.113Z,8.77
2022-10-13T15:41:13.974Z,10.68
2022-10-13T15:43:41.135Z,11.50
2022-10-13T15:46:12.760Z,12.02
2022-10-13T15:48:40.287Z,15.18
2022-10-13T15:51:13.882Z,13.98
2022-10-13T15:53:40.995Z,16.08
2022-10-13T15:56:08.923Z,17.88
2022-10-13T15:58:36.348Z,15.77
2022-10-13T16:01:12.006Z,15.00
2022-10-13T16:03:39.338Z,15.90
2022-10-13T16:06:08.379Z,15.98
2022-10-13T16:08:40.280Z,15.95
2022-10-13T16:11:13.361Z,13.55
2022-10-13T16:13:41.394Z,15.00
2022-10-13T16:16:08.908Z,15.00
2022-10-13T16:18:37.971Z,15.45
2022-10-13T16:21:17.292Z,17.67
2022-10-13T16:23:46.264Z,14.60
2022-10-13T16:26:13.339Z,15.32
2022-10-13T16:28:40.463Z,16.33
2022-10-13T16:31:13.699Z,15.85
2022-10-13T16:33:41.937Z,15.77
2022-10-13T16:36:11.692Z,17.75
2022-10-13T16:38:38.824Z,16.45
2022-10-13T16:41:12.194Z,18.50
2022-10-13T16:43:39.168Z,16.65
2022-10-13T16:46:08.353Z,15.50
2022-10-13T16:48:35.338Z,15.38
2022-10-13T16:51:12.185Z,18.25
2022-10-13T16:53:39.464Z,15.18
2022-10-13T16:56:08.225Z,17.20
2022-10-13T16:58:35.976Z,15.13
2022-10-13T17:01:11.562Z,15.57
2022-10-13T17:03:39.203Z,17.80
2022-10-13T17:06:07.100Z,13.93
2022-10-13T17:08:34.106Z,19.77
2022-10-13T17:11:01.481Z,20.40
2022-10-13T17:13:28.611Z,16.52
2022-10-13T17:15:57.079Z,19.80
2022-10-13T17:18:25.440Z,14.70
2022-10-13T17:20:59.703Z,18.50
2022-10-13T17:23:28.327Z,20.73
2022-10-13T17:25:56.481Z,17.23
2022-10-13T17:28:23.621Z,22.27
2022-10-13T17:30:58.955Z,19.00
2022-10-13T17:33:27.662Z,16.45
2022-10-13T17:36:06.900Z,19.23
2022-10-13T17:38:34.132Z,13.27
2022-10-13T17:41:06.589Z,18.52
2022-10-13T17:43:34.779Z,17.80
2022-10-13T17:46:34.358Z,16.10
2022-10-13T17:48:57.648Z,15.20
2022-10-13T17:51:24.972Z,17.10
2022-10-13T17:53:52.497Z,17.75
2022-10-13T17:56:25.235Z,20.60
2022-10-13T17:58:52.764Z,17.27
2022-10-13T18:01:27.190Z,16.08
2022-10-13T18:03:56.492Z,14.82
2022-10-13T18:06:24.063Z,16.80
2022-10-13T18:08:51.648Z,18.35
2022-10-13T18:11:20.959Z,13.77
2022-10-13T18:13:48.595Z,22.23
2022-10-13T18:16:21.193Z,16.33
2022-10-13T18:18:50.086Z,16.92
2022-10-13T18:21:19.789Z,17.75
2022-10-13T18:23:47.637Z,14.63
2022-10-13T18:26:19.327Z,17.02
2022-10-13T18:28:47.950Z,22.20
2022-10-13T18:31:16.261Z,19.65
2022-10-13T18:33:43.450Z,21.00
2022-10-13T18:36:20.097Z,16.75
2022-10-13T18:38:47.948Z,20.00
2022-10-13T18:41:15.593Z,20.58
2022-10-13T18:43:42.997Z,17.05
2022-10-13T18:46:10.604Z,17.67
2022-10-13T18:48:37.658Z,18.33
2022-10-13T18:51:09.876Z,15.07
2022-10-13T18:53:39.239Z,18.65
2022-10-13T18:56:10.186Z,18.77
2022-10-13T18:58:37.210Z,16.95
2022-10-13T19:01:10.254Z,15.98
2022-10-13T19:03:39.139Z,16.00
2022-10-13T19:06:08.654Z,15.93
2022-10-13T19:08:36.105Z,18.65
2022-10-13T19:11:14.459Z,19.50
2022-10-13T19:13:42.038Z,20.70
2022-10-13T19:16:09.402Z,16.58
2022-10-13T19:18:36.600Z,19.13
2022-10-13T19:21:04.139Z,16.00
2022-10-13T19:23:31.308Z,16.23
2022-10-13T19:25:59.020Z,19.25
2022-10-13T19:28:26.339Z,16.80
2022-10-13T19:30:53.302Z,18.30
2022-10-13T19:33:20.399Z,19.42
2022-10-13T19:35:51.618Z,17.38
2022-10-13T19:38:18.907Z,18.17
2022-10-13T19:40:49.630Z,22.00
2022-10-13T19:43:17.548Z,16.88
2022-10-13T19:45:59.619Z,18.60
2022-10-13T19:48:29.150Z,22.52
2022-10-13T19:50:56.288Z,21.20
2022-10-13T19:53:23.153Z,22.58
2022-10-13T19:55:50.168Z,21.15
2022-10-13T19:58:17.424Z,19.05
2022-10-13T20:00:45.872Z,20.48
2022-10-13T20:03:14.322Z,19.65
2022-10-13T20:05:41.668Z,22.70
2022-10-13T20:08:10.806Z,20.80
2022-10-13T20:10:39.347Z,21.02
2022-10-13T20:13:07.300Z,17.50
2022-10-13T20:15:34.264Z,16.70
2022-10-13T20:18:01.343Z,19.58
2022-10-13T20:20:28.594Z,17.20
2022-10-13T20:22:55.589Z,15.50
2022-10-13T20:25:22.567Z,18.15
2022-10-13T20:27:49.682Z,19.58
2022-10-13T20:30:16.915Z,18.13
2022-10-13T20:32:43.882Z,18.23
2022-10-13T20:35:10.941Z,19.90
2022-10-13T20:37:37.931Z,20.55
2022-10-13T20:40:05.637Z,20.13
2022-10-13T20:42:32.477Z,18.42
2022-10-13T20:45:00.804Z,17.85
2022-10-13T20:47:27.876Z,17.80
2022-10-13T20:49:54.814Z,19.15
2022-10-13T20:52:21.655Z,19.50
2022-10-13T20:54:48.661Z,18.58
2022-10-13T20:57:15.565Z,21.20
2022-10-13T20:59:42.481Z,23.67
2022-10-13T21:02:13.092Z,19.60
2022-10-13T21:04:40.204Z,20.33
2022-10-13T21:07:07.036Z,17.90
2022-10-13T21:09:35.817Z,20.08
2022-10-13T21:12:02.907Z,24.00
2022-10-13T21:14:29.866Z,23.25
2022-10-13T21:16:56.932Z,19.25
2022-10-13T21:19:24.063Z,20.42
2022-10-13T21:21:50.896Z,23.95
2022-10-13T21:24:17.897Z,22.95
2022-10-13T21:27:50.227Z,19.85
2022-10-13T21:30:17.652Z,23.17
2022-10-13T21:32:44.980Z,20.33
2022-10-13T21:35:11.807Z,22.35
2022-10-13T21:37:39.204Z,22.38
2022-10-13T21:40:07.242Z,22.60
2022-10-13T21:42:34.616Z,21.77
2022-10-13T21:45:03.246Z,22.23
2022-10-13T21:47:32.536Z,21.90
2022-10-13T21:50:00.449Z,20.98
2022-10-13T21:52:28.478Z,20.90
2022-10-13T21:54:55.489Z,20.27
2022-10-13T21:57:23.031Z,20.52
2022-10-13T21:59:50.133Z,19.23
2022-10-13T22:02:17.120Z,22.45
2022-10-13T22:04:43.985Z,23.80
2022-10-13T22:07:10.767Z,25.33
2022-10-13T22:09:37.799Z,22.80
2022-10-13T22:12:05.372Z,26.52
2022-10-13T22:14:32.495Z,28.10
2022-10-13T22:16:59.554Z,19.65
2022-10-13T22:19:26.560Z,20.73
2022-10-13T22:21:53.579Z,23.65
2022-10-13T22:24:21.915Z,22.80
2022-10-13T22:26:50.049Z,21.52
2022-10-13T22:29:20.232Z,23.75
2022-10-13T22:31:47.233Z,26.02
2022-10-13T22:34:15.429Z,24.83
2022-10-13T22:36:45.128Z,22.70
2022-10-13T22:39:13.073Z,22.95
2022-10-13T22:41:40.118Z,22.33
2022-10-13T22:44:07.523Z,22.05
2022-10-13T22:46:37.046Z,24.98
2022-10-13T22:49:05.360Z,20.58
2022-10-13T22:51:33.655Z,23.92
2022-10-13T22:54:00.540Z,21.85
2022-10-13T22:56:30.257Z,23.23
2022-10-13T22:58:59.893Z,23.48
2022-10-13T23:01:27.652Z,22.70
2022-10-13T23:03:57.275Z,22.02
2022-10-13T23:06:27.179Z,22.92
2022-10-13T23:08:54.355Z,23.23
2022-10-13T23:11:21.644Z,23.60
2022-10-13T23:13:49.093Z,20.95
2022-10-13T23:16:19.823Z,29.67
2022-10-13T23:18:47.107Z,24.98
2022-10-13T23:21:16.814Z,25.70
2022-10-13T23:23:44.116Z,23.73
2022-10-13T23:26:17.817Z,23.67
2022-10-13T23:28:45.188Z,22.48
2022-10-13T23:31:15.299Z,24.92
2022-10-13T23:33:42.514Z,25.73
2022-10-13T23:36:16.766Z,25.20
2022-10-13T23:38:44.116Z,25.20
2022-10-13T23:41:13.355Z,23.63
2022-10-13T23:43:41.625Z,25.65
2022-10-13T23:46:11.541Z,24.63
2022-10-13T23:48:40.043Z,26.15
2022-10-13T23:51:09.051Z,28.65
2022-10-13T23:53:38.276Z,28.20
2022-10-13T23:56:06.466Z,26.10
2022-10-13T23:58:36.662Z,24.70
